Time;durP1;ratioP1;P1;durP2;ratioP2;P2;SDS_P1;SDS_P2;PMS_P1;PMS_P2;Temp;Humidity;BMP_temperature;BMP_pressure;BME280_temperature;BME280_humidity;BME280_pressure;Samples;Min_cycle;Max_cycle;Signal;HPM_P1;HPM_P2
2020/12/26 00:00:11;;;;;;;5.15;4.65;;;6.50;99.90;;;;;;5130703;27;20257;-77
2020/12/26 00:02:37;;;;;;;4.70;3.65;;;6.50;99.90;;;;;;5135938;27;20200;-77
2020/12/26 00:05:03;;;;;;;5.05;3.63;;;6.40;99.90;;;;;;5135750;27;20193;-76
2020/12/26 00:07:30;;;;;;;3.80;3.40;;;6.40;99.90;;;;;;5117382;27;20914;-73
2020/12/26 00:09:57;;;;;;;6.80;4.38;;;6.50;99.90;;;;;;5118262;27;20203;-76
2020/12/26 00:12:23;;;;;;;5.57;3.90;;;6.40;99.90;;;;;;5134745;27;20296;-76
2020/12/26 00:14:49;;;;;;;3.53;3.20;;;6.50;99.90;;;;;;5136076;27;20196;-75
2020/12/26 00:17:16;;;;;;;4.30;3.88;;;6.50;99.90;;;;;;5134096;27;20193;-78
2020/12/26 00:19:42;;;;;;;6.45;3.05;;;6.40;99.90;;;;;;5114574;28;20700;-77
2020/12/26 00:22:08;;;;;;;4.38;3.38;;;6.40;99.90;;;;;;5114150;28;20192;-75
2020/12/26 00:24:34;;;;;;;3.55;3.25;;;6.40;99.90;;;;;;5114308;28;20207;-78
2020/12/26 00:27:01;;;;;;;3.10;2.88;;;6.50;99.90;;;;;;5114813;28;20204;-78
2020/12/26 00:29:28;;;;;;;7.47;3.78;;;6.50;99.90;;;;;;5114390;28;20193;-77
2020/12/26 00:31:54;;;;;;;4.88;2.72;;;6.50;99.90;;;;;;5114137;28;20671;-76
2020/12/26 00:34:21;;;;;;;5.28;3.58;;;6.50;99.90;;;;;;5115115;28;20594;-76
2020/12/26 00:36:47;;;;;;;5.53;2.90;;;6.50;99.90;;;;;;5114778;27;20200;-77
2020/12/26 00:39:13;;;;;;;3.47;2.30;;;6.40;99.90;;;;;;5115065;28;20197;-77
2020/12/26 00:41:40;;;;;;;2.85;2.55;;;6.40;99.90;;;;;;5120824;27;20196;-77
2020/12/26 00:44:07;;;;;;;4.38;3.13;;;6.40;99.90;;;;;;5132993;27;20202;-76
2020/12/26 00:46:33;;;;;;;3.17;2.67;;;6.40;99.90;;;;;;5135644;27;20196;-77
2020/12/26 00:48:59;;;;;;;4.82;2.53;;;6.40;99.90;;;;;;5133363;27;20200;-78
2020/12/26 00:51:25;;;;;;;3.42;2.95;;;6.40;99.90;;;;;;5113402;27;20242;-78
2020/12/26 00:53:52;;;;;;;3.70;3.35;;;6.40;99.90;;;;;;5114791;28;20213;-77
2020/12/26 00:56:18;;;;;;;3.75;3.10;;;6.40;99.90;;;;;;5115761;27;20197;-78
2020/12/26 00:58:44;;;;;;;7.85;3.03;;;6.40;99.90;;;;;;5120420;27;20197;-78
2020/12/26 01:01:14;;;;;;;3.70;2.67;;;6.40;99.90;;;;;;5114929;27;20209;-78
2020/12/26 01:03:40;;;;;;;3.45;2.00;;;6.50;99.90;;;;;;5114675;28;20189;-79
2020/12/26 01:06:12;;;;;;;3.60;3.10;;;6.40;99.90;;;;;;5114789;27;20211;-79
2020/12/26 01:08:40;;;;;;;2.75;2.50;;;6.50;99.90;;;;;;5116010;27;20594;-80
2020/12/26 01:11:06;;;;;;;3.15;2.65;;;6.50;99.90;;;;;;5116007;27;20216;-79
2020/12/26 01:13:32;;;;;;;3.45;2.30;;;6.40;99.90;;;;;;5125628;27;20189;-79
2020/12/26 01:15:58;;;;;;;3.50;2.40;;;6.50;99.90;;;;;;5114550;28;20196;-79
2020/12/26 01:18:28;;;;;;;6.18;4.00;;;6.50;99.90;;;;;;5114478;28;20224;-79
2020/12/26 01:20:55;;;;;;;4.05;2.67;;;6.40;99.90;;;;;;5125706;27;20594;-79
2020/12/26 01:23:21;;;;;;;3.58;3.28;;;6.40;99.90;;;;;;5134992;27;20235;-80
2020/12/26 01:25:48;;;;;;;4.35;2.55;;;6.40;99.90;;;;;;5131970;27;20652;-80
2020/12/26 01:28:14;;;;;;;3.53;2.42;;;6.40;99.90;;;;;;5127626;27;20196;-79
2020/12/26 01:30:40;;;;;;;4.18;3.00;;;6.40;99.90;;;;;;5134156;27;20205;-80
2020/12/26 01:33:07;;;;;;;8.82;2.50;;;6.40;99.90;;;;;;5115410;27;20189;-80
2020/12/26 01:35:34;;;;;;;2.55;2.35;;;6.40;99.90;;;;;;5116523;27;20197;-80
2020/12/26 01:38:00;;;;;;;3.47;2.35;;;6.40;99.90;;;;;;5134576;27;20211;-80
2020/12/26 01:40:27;;;;;;;2.53;2.30;;;6.50;99.90;;;;;;5126971;27;20217;-80
2020/12/26 01:42:53;;;;;;;3.05;2.35;;;6.50;99.90;;;;;;5113998;27;20633;-80
2020/12/26 01:45:19;;;;;;;6.93;2.85;;;6.40;99.90;;;;;;5114110;27;20211;-78
2020/12/26 01:47:46;;;;;;;2.67;2.47;;;6.40;99.90;;;;;;5133013;27;20200;-79
2020/12/26 01:50:12;;;;;;;3.00;2.30;;;6.50;99.90;;;;;;5128583;27;20205;-79
2020/12/26 01:52:40;;;;;;;3.65;2.88;;;6.50;99.90;;;;;;5113940;28;20433;-78
2020/12/26 01:55:06;;;;;;;3.47;3.00;;;6.50;99.90;;;;;;5113824;28;20258;-80
2020/12/26 01:57:35;;;;;;;4.57;2.83;;;6.50;99.90;;;;;;5125297;27;20227;-78
2020/12/26 02:00:01;;;;;;;2.20;2.00;;;6.50;99.90;;;;;;5122489;27;20624;-77
2020/12/26 02:02:27;;;;;;;3.40;2.38;;;6.50;99.90;;;;;;5133911;27;20228;-77
2020/12/26 02:04:54;;;;;;;3.22;2.70;;;6.50;99.90;;;;;;5117856;27;20216;-78
2020/12/26 02:07:20;;;;;;;3.33;2.67;;;6.50;99.90;;;;;;5131038;27;20192;-78
2020/12/26 02:09:47;;;;;;;3.38;2.65;;;6.40;99.90;;;;;;5127196;27;20201;-77
2020/12/26 02:12:14;;;;;;;5.47;2.40;;;6.50;99.90;;;;;;5127752;27;20214;-77
2020/12/26 02:14:45;;;;;;;4.40;2.72;;;6.40;99.90;;;;;;5132892;27;20192;-77
2020/12/26 02:17:11;;;;;;;2.95;2.40;;;6.40;99.90;;;;;;5119858;27;20193;-78
2020/12/26 02:19:37;;;;;;;3.55;2.63;;;6.40;99.90;;;;;;5113164;28;20189;-78
2020/12/26 02:22:04;;;;;;;3.25;2.47;;;6.40;99.90;;;;;;5133266;27;20184;-77
2020/12/26 02:24:31;;;;;;;3.25;2.67;;;6.40;99.90;;;;;;5117722;27;20197;-77
2020/12/26 02:26:57;;;;;;;3.92;3.17;;;6.40;99.90;;;;;;5112882;27;20245;-76
2020/12/26 02:29:23;;;;;;;5.03;3.35;;;6.40;99.90;;;;;;5112905;28;20203;-76
2020/12/26 02:31:50;;;;;;;2.90;2.55;;;6.40;99.90;;;;;;5121756;27;20277;-76
2020/12/26 02:34:16;;;;;;;6.47;2.90;;;6.50;99.90;;;;;;5132990;27;20204;-77
2020/12/26 02:36:42;;;;;;;4.43;2.80;;;6.40;99.90;;;;;;5133449;27;20703;-77
2020/12/26 02:39:09;;;;;;;3.08;2.22;;;6.40;99.90;;;;;;5123031;27;20208;-77
2020/12/26 02:41:36;;;;;;;6.32;3.00;;;6.50;99.90;;;;;;5118256;27;20191;-76
2020/12/26 02:44:02;;;;;;;4.63;3.03;;;6.50;99.90;;;;;;5121099;27;20197;-77
2020/12/26 02:46:28;;;;;;;5.03;3.13;;;6.40;99.90;;;;;;5112647;28;20212;-77
2020/12/26 02:48:54;;;;;;;6.35;3.25;;;6.40;99.90;;;;;;5112796;28;20200;-77
2020/12/26 02:51:21;;;;;;;3.97;2.80;;;6.50;99.90;;;;;;5113470;27;20229;-77
2020/12/26 02:53:47;;;;;;;2.97;2.67;;;6.40;99.90;;;;;;5120662;27;20249;-77
2020/12/26 02:56:13;;;;;;;3.10;2.60;;;6.40;99.90;;;;;;5130374;27;20196;-77
2020/12/26 02:58:40;;;;;;;3.15;2.85;;;6.40;99.90;;;;;;5122552;27;20192;-77
2020/12/26 03:01:07;;;;;;;3.92;3.55;;;6.40;99.90;;;;;;5121912;27;20188;-77
2020/12/26 03:03:33;;;;;;;3.58;3.00;;;6.40;99.90;;;;;;5113793;28;20196;-76
2020/12/26 03:06:00;;;;;;;5.70;2.60;;;6.40;99.90;;;;;;5112746;28;20200;-77
2020/12/26 03:08:26;;;;;;;3.22;2.83;;;6.40;99.90;;;;;;5132967;27;20202;-77
2020/12/26 03:10:53;;;;;;;3.38;2.70;;;6.50;99.90;;;;;;5111531;28;20213;-77
2020/12/26 03:13:19;;;;;;;4.28;2.67;;;6.40;99.90;;;;;;5112162;28;20257;-77
2020/12/26 03:15:46;;;;;;;3.95;2.70;;;6.50;99.90;;;;;;5111883;28;20796;-77
2020/12/26 03:18:12;;;;;;;3.88;2.50;;;6.40;99.90;;;;;;5112332;28;20197;-77
2020/12/26 03:20:39;;;;;;;2.60;2.40;;;6.40;99.90;;;;;;5111953;28;20188;-78
2020/12/26 03:23:05;;;;;;;3.88;3.20;;;6.40;99.90;;;;;;5113330;28;20261;-79
2020/12/26 03:25:32;;;;;;;2.83;2.25;;;6.50;99.90;;;;;;5112072;28;20192;-79
2020/12/26 03:27:59;;;;;;;4.10;3.70;;;6.40;99.90;;;;;;5112315;28;20224;-79
2020/12/26 03:30:25;;;;;;;2.75;2.45;;;6.40;99.90;;;;;;5113305;28;20651;-79
2020/12/26 03:32:52;;;;;;;6.70;2.85;;;6.40;99.90;;;;;;5117916;28;20192;-79
2020/12/26 03:35:18;;;;;;;4.35;2.97;;;6.50;99.90;;;;;;5131093;27;20690;-79
2020/12/26 03:37:45;;;;;;;5.50;2.88;;;6.40;99.90;;;;;;5132455;27;20666;-76
2020/12/26 03:40:11;;;;;;;5.28;2.75;;;6.40;99.90;;;;;;5131726;27;20232;-77
2020/12/26 03:42:37;;;;;;;6.78;3.67;;;6.40;99.90;;;;;;5132295;27;20196;-77
2020/12/26 03:45:04;;;;;;;3.55;2.97;;;6.40;99.90;;;;;;5129611;27;20577;-77
2020/12/26 03:47:31;;;;;;;2.90;2.55;;;6.40;99.90;;;;;;5121468;28;20555;-77
2020/12/26 03:49:58;;;;;;;3.85;2.58;;;6.40;99.90;;;;;;5132240;27;20271;-77
2020/12/26 03:52:24;;;;;;;4.53;2.85;;;6.40;99.90;;;;;;5111745;28;20308;-77
2020/12/26 03:54:50;;;;;;;3.60;2.75;;;6.40;99.90;;;;;;5112267;28;20212;-77
2020/12/26 03:57:17;;;;;;;4.75;2.80;;;6.40;99.90;;;;;;5121419;28;20196;-77
2020/12/26 03:59:43;;;;;;;8.27;3.35;;;6.30;99.90;;;;;;5132317;27;20211;-77
2020/12/26 04:02:09;;;;;;;4.20;3.67;;;6.40;99.90;;;;;;5130603;27;20189;-77
2020/12/26 04:04:36;;;;;;;4.03;2.90;;;6.40;99.90;;;;;;5113407;27;20254;-76
2020/12/26 04:07:03;;;;;;;9.48;4.38;;;6.30;99.90;;;;;;5111989;28;20283;-76
2020/12/26 04:09:29;;;;;;;3.47;2.95;;;6.30;99.90;;;;;;5111550;28;20204;-77
2020/12/26 04:11:56;;;;;;;4.63;3.00;;;6.40;99.90;;;;;;5114564;28;20200;-77
2020/12/26 04:14:22;;;;;;;5.22;3.33;;;6.40;99.90;;;;;;5115918;27;20189;-77
2020/12/26 04:16:48;;;;;;;4.95;3.17;;;6.40;99.90;;;;;;5117669;27;20201;-77
2020/12/26 04:19:14;;;;;;;5.65;3.60;;;6.30;99.90;;;;;;5135214;27;20203;-76
2020/12/26 04:21:41;;;;;;;5.10;2.95;;;6.40;99.90;;;;;;5123073;27;20189;-77
2020/12/26 04:24:08;;;;;;;4.97;3.60;;;6.40;99.90;;;;;;5115365;27;20547;-77
2020/12/26 04:26:34;;;;;;;8.48;3.40;;;6.40;99.90;;;;;;5115822;28;20208;-78
2020/12/26 04:29:01;;;;;;;5.55;3.75;;;6.40;99.90;;;;;;5115616;28;20197;-80
2020/12/26 04:31:27;;;;;;;3.55;3.05;;;6.40;99.90;;;;;;5125961;27;20317;-77
2020/12/26 04:33:53;;;;;;;7.97;4.82;;;6.40;99.90;;;;;;5127556;27;20536;-76
2020/12/26 04:36:19;;;;;;;5.05;3.00;;;6.30;99.90;;;;;;5121576;27;20189;-76
2020/12/26 04:38:45;;;;;;;4.75;4.28;;;6.40;99.90;;;;;;5114848;27;20201;-77
2020/12/26 04:41:14;;;;;;;9.73;3.20;;;6.40;99.90;;;;;;5123833;27;20224;-77
2020/12/26 04:43:40;;;;;;;4.28;3.88;;;6.40;99.90;;;;;;5135397;27;20637;-76
2020/12/26 04:46:13;;;;;;;4.50;3.55;;;6.40;99.90;;;;;;5121894;27;20208;-76
2020/12/26 04:48:46;;;;;;;3.33;3.10;;;6.40;99.90;;;;;;5115206;28;20185;-76
2020/12/26 04:51:17;;;;;;;6.93;4.38;;;6.40;99.90;;;;;;5119786;27;20722;-76
2020/12/26 04:53:45;;;;;;;4.20;3.30;;;6.30;99.90;;;;;;5117993;27;20193;-77
2020/12/26 04:56:12;;;;;;;4.80;3.25;;;6.30;99.90;;;;;;5128009;27;20191;-76
2020/12/26 04:58:40;;;;;;;6.00;4.25;;;6.40;99.90;;;;;;5116053;27;20254;-76
2020/12/26 05:01:08;;;;;;;5.13;3.72;;;6.40;99.90;;;;;;5135295;27;20188;-77
2020/12/26 05:03:35;;;;;;;3.75;3.17;;;6.30;99.90;;;;;;5134979;27;20205;-78
2020/12/26 05:06:05;;;;;;;6.65;3.40;;;6.40;99.90;;;;;;5124151;27;20197;-79
2020/12/26 05:08:32;;;;;;;5.85;3.80;;;6.30;99.90;;;;;;5131671;27;20214;-77
2020/12/26 05:10:58;;;;;;;7.22;3.45;;;6.40;99.90;;;;;;5115269;27;20303;-76
2020/12/26 05:13:26;;;;;;;4.65;4.25;;;6.30;99.90;;;;;;5122879;27;20249;-76
2020/12/26 05:15:53;;;;;;;5.05;3.70;;;6.30;99.90;;;;;;5122314;27;20192;-77
2020/12/26 05:18:20;;;;;;;4.45;3.38;;;6.30;99.90;;;;;;5118360;27;20192;-77
2020/12/26 05:20:47;;;;;;;6.95;4.32;;;6.30;99.90;;;;;;5134424;27;20607;-76
2020/12/26 05:23:14;;;;;;;5.32;4.30;;;6.30;99.90;;;;;;5121524;27;20204;-76
2020/12/26 05:25:42;;;;;;;5.45;4.93;;;6.30;99.90;;;;;;5114803;27;20219;-77
2020/12/26 05:28:10;;;;;;;7.03;4.72;;;6.30;99.90;;;;;;5114363;28;20204;-77
2020/12/26 05:30:38;;;;;;;11.93;3.95;;;6.30;99.90;;;;;;5116058;27;20201;-77
2020/12/26 05:33:05;;;;;;;5.90;3.60;;;6.30;99.90;;;;;;5121503;27;20201;-77
2020/12/26 05:35:36;;;;;;;5.03;3.45;;;6.30;99.90;;;;;;5119859;27;20620;-77
2020/12/26 05:38:18;;;;;;;7.45;3.50;;;6.30;99.90;;;;;;5134382;27;20200;-76
2020/12/26 05:40:49;;;;;;;3.95;3.55;;;6.30;99.90;;;;;;5131944;27;20224;-77
2020/12/26 05:43:18;;;;;;;4.05;3.65;;;6.30;99.90;;;;;;5119511;27;20181;-77
2020/12/26 05:45:45;;;;;;;5.75;4.15;;;6.30;99.90;;;;;;5113878;28;20465;-77
2020/12/26 05:48:13;;;;;;;5.65;3.97;;;6.30;99.90;;;;;;5113875;27;20196;-77
2020/12/26 05:50:40;;;;;;;7.88;3.65;;;6.30;99.90;;;;;;5115260;27;20208;-77
2020/12/26 05:53:08;;;;;;;4.60;4.10;;;6.30;99.90;;;;;;5122005;27;20193;-77
2020/12/26 05:55:38;;;;;;;5.43;4.18;;;6.30;99.90;;;;;;5119761;27;20192;-76
2020/12/26 05:58:05;;;;;;;4.50;3.42;;;6.30;99.90;;;;;;5134333;27;20215;-76
2020/12/26 06:00:36;;;;;;;5.63;4.20;;;6.40;99.90;;;;;;5118841;27;20249;-77
2020/12/26 06:03:24;;;;;;;10.85;3.95;;;6.40;99.90;;;;;;5113195;27;20189;-77
2020/12/26 06:05:51;;;;;;;5.05;4.00;;;6.30;99.90;;;;;;5118921;27;20198;-78
2020/12/26 06:08:18;;;;;;;8.13;5.00;;;6.30;99.90;;;;;;5113385;28;20558;-78
2020/12/26 06:10:49;;;;;;;6.43;4.70;;;6.30;99.90;;;;;;5115998;27;20204;-79
2020/12/26 06:13:17;;;;;;;5.07;4.05;;;6.30;99.90;;;;;;5133881;27;20186;-78
2020/12/26 06:15:49;;;;;;;4.90;4.40;;;6.30;99.90;;;;;;5125259;27;20207;-79
2020/12/26 06:18:17;;;;;;;5.97;4.53;;;6.40;99.90;;;;;;5133776;27;20181;-79
2020/12/26 06:20:44;;;;;;;5.65;4.00;;;6.40;99.90;;;;;;5131275;27;20205;-79
2020/12/26 06:23:16;;;;;;;6.30;4.28;;;6.40;99.90;;;;;;5113236;28;20200;-78
2020/12/26 06:25:43;;;;;;;7.05;4.75;;;6.40;99.90;;;;;;5124720;27;20192;-79
2020/12/26 06:28:20;;;;;;;6.95;4.68;;;6.40;99.90;;;;;;5133952;27;20192;-79
2020/12/26 06:30:49;;;;;;;5.95;4.68;;;6.40;99.90;;;;;;5131164;27;20188;-78
2020/12/26 06:33:15;;;;;;;8.73;4.75;;;6.30;99.90;;;;;;5112822;28;20647;-78
2020/12/26 06:35:42;;;;;;;8.90;4.88;;;6.30;99.90;;;;;;5113675;27;20648;-79
2020/12/26 06:38:17;;;;;;;12.65;5.07;;;6.30;99.90;;;;;;5112896;28;20268;-79
2020/12/26 06:40:56;;;;;;;8.23;4.40;;;6.40;99.90;;;;;;5114165;27;20235;-79
2020/12/26 06:43:45;;;;;;;8.10;5.78;;;6.40;99.90;;;;;;5112870;28;20596;-79
2020/12/26 06:46:39;;;;;;;5.43;4.57;;;6.40;99.90;;;;;;5120616;27;20188;-77
2020/12/26 06:49:05;;;;;;;9.48;4.38;;;6.40;99.90;;;;;;5124033;27;20192;-77
2020/12/26 06:51:34;;;;;;;5.93;4.85;;;6.40;99.90;;;;;;5128789;27;20254;-80
2020/12/26 06:54:02;;;;;;;5.70;5.22;;;6.40;99.90;;;;;;5132031;27;20226;-80
2020/12/26 06:56:48;;;;;;;9.52;4.97;;;6.30;99.90;;;;;;5126612;27;20196;-78
2020/12/26 06:59:15;;;;;;;7.20;5.15;;;6.30;99.90;;;;;;5112779;28;20235;-77
2020/12/26 07:01:43;;;;;;;8.13;5.70;;;6.40;99.90;;;;;;5112327;27;20204;-77
2020/12/26 07:04:17;;;;;;;8.00;5.78;;;6.30;99.90;;;;;;5112576;28;20200;-77
2020/12/26 07:06:44;;;;;;;5.68;5.05;;;6.30;99.90;;;;;;5124203;27;20528;-78
2020/12/26 07:09:13;;;;;;;6.20;4.63;;;6.30;99.90;;;;;;5123305;27;20203;-79
2020/12/26 07:11:46;;;;;;;6.45;5.07;;;6.40;99.90;;;;;;5120485;27;20215;-79
2020/12/26 07:14:32;;;;;;;6.28;5.75;;;6.40;99.90;;;;;;5129603;27;20237;-78
2020/12/26 07:16:59;;;;;;;9.95;5.30;;;6.30;99.90;;;;;;5113574;28;20237;-78
2020/12/26 07:19:33;;;;;;;8.65;5.15;;;6.30;99.90;;;;;;5112690;28;20203;-80
2020/12/26 07:22:01;;;;;;;8.23;5.93;;;6.30;99.90;;;;;;5112363;28;20192;-80
2020/12/26 07:24:34;;;;;;;5.93;5.20;;;6.30;99.90;;;;;;5112441;28;20201;-80
2020/12/26 07:27:19;;;;;;;8.75;5.90;;;6.30;99.90;;;;;;5129514;28;20653;-80
2020/12/26 07:29:57;;;;;;;6.28;4.93;;;6.30;99.90;;;;;;5111372;27;20193;-79
2020/12/26 07:32:46;;;;;;;7.38;5.90;;;6.30;99.90;;;;;;5112178;28;20208;-79
2020/12/26 07:35:41;;;;;;;9.18;6.30;;;6.30;99.90;;;;;;5132587;27;20199;-77
2020/12/26 07:38:10;;;;;;;6.53;5.15;;;6.40;99.90;;;;;;5115532;27;20292;-77
2020/12/26 07:40:38;;;;;;;7.22;5.90;;;6.40;99.90;;;;;;5115284;28;20224;-78
2020/12/26 07:43:08;;;;;;;9.90;6.78;;;6.30;99.90;;;;;;5122246;28;20206;-81
2020/12/26 07:45:36;;;;;;;9.63;6.10;;;6.30;99.90;;;;;;5132567;27;20204;-77
2020/12/26 07:48:04;;;;;;;7.18;6.00;;;6.30;99.90;;;;;;5135275;27;20252;-76
2020/12/26 07:50:31;;;;;;;6.20;5.60;;;6.30;99.90;;;;;;5136628;27;20192;-76
2020/12/26 07:52:59;;;;;;;7.93;6.20;;;6.30;99.90;;;;;;5135441;27;20216;-78
2020/12/26 07:55:27;;;;;;;6.45;5.85;;;6.30;99.90;;;;;;5136705;27;20260;-76
2020/12/26 07:58:00;;;;;;;8.15;6.90;;;6.30;99.90;;;;;;5123486;27;20778;-76
2020/12/26 08:00:28;;;;;;;6.50;5.88;;;6.30;99.90;;;;;;5116007;27;20193;-77
2020/12/26 08:02:56;;;;;;;9.10;6.00;;;6.30;99.90;;;;;;5127903;27;20211;-77
2020/12/26 08:05:24;;;;;;;9.32;6.32;;;6.30;99.90;;;;;;5119245;27;20196;-77
2020/12/26 08:07:50;;;;;;;9.57;6.93;;;6.40;99.90;;;;;;5136328;27;20586;-76
2020/12/26 08:10:18;;;;;;;7.20;5.95;;;6.40;99.90;;;;;;5116103;27;20636;-76
2020/12/26 08:12:48;;;;;;;9.75;7.00;;;6.30;99.90;;;;;;5125670;27;20623;-76
2020/12/26 08:15:23;;;;;;;8.15;6.53;;;6.40;99.90;;;;;;5115327;28;20200;-76
2020/12/26 08:17:53;;;;;;;5.70;5.20;;;6.30;99.90;;;;;;5114341;28;20261;-76
2020/12/26 08:20:21;;;;;;;6.65;5.05;;;6.30;99.90;;;;;;5115684;28;20203;-76
2020/12/26 08:22:47;;;;;;;8.13;6.75;;;6.30;99.90;;;;;;5114422;28;20204;-76
2020/12/26 08:25:14;;;;;;;6.60;6.00;;;6.30;99.90;;;;;;5114902;28;20197;-76
2020/12/26 08:27:41;;;;;;;7.78;5.88;;;6.30;99.90;;;;;;5118123;27;20252;-76
2020/12/26 08:30:10;;;;;;;7.88;6.30;;;6.30;99.90;;;;;;5119033;27;20264;-75
2020/12/26 08:32:50;;;;;;;6.32;5.70;;;6.30;99.90;;;;;;5114941;27;20223;-76
2020/12/26 08:35:19;;;;;;;9.77;6.40;;;6.30;99.90;;;;;;5120797;27;20185;-76
2020/12/26 08:37:46;;;;;;;6.78;6.03;;;6.30;99.90;;;;;;5117390;27;20197;-76
2020/12/26 08:40:16;;;;;;;6.47;5.85;;;6.40;99.90;;;;;;5122069;27;20220;-80
2020/12/26 08:42:43;;;;;;;6.57;5.88;;;6.40;99.90;;;;;;5121039;27;20196;-77
2020/12/26 08:45:28;;;;;;;6.75;6.05;;;6.30;99.90;;;;;;5119287;27;20200;-76
2020/12/26 08:47:59;;;;;;;5.85;5.25;;;6.40;99.90;;;;;;5124614;27;20207;-77
2020/12/26 08:50:29;;;;;;;7.82;7.05;;;6.30;99.90;;;;;;5114714;27;20753;-77
2020/12/26 08:53:07;;;;;;;6.45;5.72;;;6.30;99.90;;;;;;5120939;27;20204;-76
2020/12/26 08:55:45;;;;;;;8.20;5.50;;;6.30;99.90;;;;;;5117797;27;20274;-76
2020/12/26 08:58:21;;;;;;;9.98;6.10;;;6.40;99.90;;;;;;5123651;27;20816;-80
2020/12/26 09:00:48;;;;;;;10.70;6.47;;;6.40;99.90;;;;;;5124860;27;20235;-79
2020/12/26 09:03:20;;;;;;;7.90;6.20;;;6.40;99.90;;;;;;5114301;28;20706;-78
2020/12/26 09:05:47;;;;;;;6.53;5.35;;;6.50;99.90;;;;;;5128260;27;20199;-79
2020/12/26 09:08:14;;;;;;;5.82;4.78;;;6.40;99.90;;;;;;5124817;27;20196;-79
2020/12/26 09:10:41;;;;;;;8.38;6.18;;;6.40;99.90;;;;;;5128897;27;20193;-77
2020/12/26 09:13:09;;;;;;;5.70;5.20;;;6.40;99.90;;;;;;5122800;27;20219;-79
2020/12/26 09:15:51;;;;;;;7.82;6.53;;;6.40;99.90;;;;;;5116210;27;20624;-80
2020/12/26 09:18:20;;;;;;;9.30;5.53;;;6.40;99.90;;;;;;5114625;27;20575;-77
2020/12/26 09:20:51;;;;;;;10.13;4.70;;;6.40;99.90;;;;;;5114340;27;20280;-76
2020/12/26 09:23:17;;;;;;;5.35;4.93;;;6.40;99.90;;;;;;5112809;28;20185;-76
2020/12/26 09:25:44;;;;;;;5.32;4.82;;;6.30;99.90;;;;;;5113914;28;20208;-79
2020/12/26 09:28:10;;;;;;;7.97;5.93;;;6.30;99.90;;;;;;5113631;28;20211;-79
2020/12/26 09:30:36;;;;;;;10.30;5.85;;;6.30;99.90;;;;;;5113851;28;20231;-77
2020/12/26 09:33:03;;;;;;;6.60;6.00;;;6.30;99.90;;;;;;5124925;27;20216;-77
2020/12/26 09:35:31;;;;;;;6.07;5.45;;;6.30;99.90;;;;;;5130204;27;20192;-76
2020/12/26 09:37:57;;;;;;;6.82;6.05;;;6.30;99.90;;;;;;5125922;27;20197;-76
2020/12/26 09:40:28;;;;;;;7.25;5.60;;;6.40;99.90;;;;;;5113601;28;20228;-77
2020/12/26 09:42:54;;;;;;;7.10;5.75;;;6.40;99.90;;;;;;5113932;27;20197;-79
2020/12/26 09:45:21;;;;;;;7.47;6.63;;;6.40;99.90;;;;;;5127036;27;20192;-79
2020/12/26 09:47:47;;;;;;;7.18;5.40;;;6.40;99.90;;;;;;5134334;27;20203;-78
2020/12/26 09:50:13;;;;;;;9.40;5.53;;;6.40;99.90;;;;;;5120464;27;20246;-76
2020/12/26 09:52:42;;;;;;;8.55;5.70;;;6.40;99.90;;;;;;5113161;27;20560;-79
2020/12/26 09:55:10;;;;;;;7.68;5.82;;;6.40;99.90;;;;;;5125500;27;20201;-78
2020/12/26 09:57:37;;;;;;;5.82;5.22;;;6.40;99.90;;;;;;5126097;27;20200;-77
2020/12/26 10:00:06;;;;;;;6.20;5.60;;;6.40;99.90;;;;;;5122574;27;20545;-78
2020/12/26 10:02:32;;;;;;;7.45;6.22;;;6.40;99.90;;;;;;5124655;27;20192;-79
2020/12/26 10:04:58;;;;;;;5.97;4.82;;;6.50;99.90;;;;;;5118626;27;20256;-77
2020/12/26 10:07:25;;;;;;;5.55;4.68;;;6.50;99.90;;;;;;5129746;27;20193;-76
2020/12/26 10:09:52;;;;;;;5.15;4.20;;;6.50;99.90;;;;;;5118664;27;20637;-77
2020/12/26 10:12:18;;;;;;;5.80;5.20;;;6.60;99.90;;;;;;5124098;27;20313;-76
2020/12/26 10:14:44;;;;;;;5.50;5.00;;;6.60;99.90;;;;;;5113319;28;20199;-77
2020/12/26 10:17:10;;;;;;;6.43;4.70;;;6.70;99.90;;;;;;5112926;27;20192;-76
2020/12/26 10:19:37;;;;;;;9.15;4.80;;;6.80;99.90;;;;;;5113966;27;20193;-76
2020/12/26 10:22:03;;;;;;;5.35;4.85;;;6.90;99.90;;;;;;5128898;27;20200;-76
2020/12/26 10:24:29;;;;;;;6.75;5.25;;;6.90;99.90;;;;;;5119425;27;20227;-76
2020/12/26 10:26:56;;;;;;;7.10;5.18;;;6.90;99.90;;;;;;5113098;27;20264;-76
2020/12/26 10:29:22;;;;;;;6.25;5.65;;;6.80;99.90;;;;;;5114523;27;20250;-76
2020/12/26 10:31:49;;;;;;;5.05;4.55;;;6.70;99.90;;;;;;5116817;27;20262;-76
2020/12/26 10:34:15;;;;;;;6.15;4.75;;;6.70;99.90;;;;;;5112922;27;20197;-76
2020/12/26 10:36:44;;;;;;;5.60;5.10;;;6.70;99.90;;;;;;5123029;27;20292;-76
2020/12/26 10:39:10;;;;;;;6.50;4.28;;;6.60;99.90;;;;;;5113964;27;20208;-76
2020/12/26 10:41:39;;;;;;;7.18;4.95;;;6.60;99.90;;;;;;5114321;27;20269;-76
2020/12/26 10:44:06;;;;;;;5.55;5.03;;;6.60;99.90;;;;;;5112676;27;20220;-76
2020/12/26 10:46:32;;;;;;;4.38;3.97;;;6.60;99.90;;;;;;5122260;27;20217;-76
2020/12/26 10:48:58;;;;;;;7.72;5.70;;;6.60;99.90;;;;;;5115112;27;20211;-76
2020/12/26 10:51:24;;;;;;;6.70;4.70;;;6.50;99.90;;;;;;5112433;28;20219;-76
2020/12/26 10:53:51;;;;;;;5.75;4.75;;;6.60;99.90;;;;;;5127118;27;20207;-76
2020/12/26 10:56:17;;;;;;;7.03;4.82;;;6.60;99.90;;;;;;5131646;27;20204;-76
2020/12/26 10:58:43;;;;;;;5.30;3.88;;;6.60;99.90;;;;;;5129786;27;20225;-76
2020/12/26 11:01:10;;;;;;;3.90;3.60;;;6.60;99.90;;;;;;5126943;27;20199;-76
2020/12/26 11:03:36;;;;;;;4.55;4.20;;;6.70;99.90;;;;;;5114850;27;20193;-76
2020/12/26 11:06:03;;;;;;;8.25;5.10;;;6.70;99.90;;;;;;5114661;27;20218;-76
2020/12/26 11:08:29;;;;;;;4.32;3.90;;;6.80;99.90;;;;;;5112434;28;20220;-76
2020/12/26 11:10:55;;;;;;;4.65;4.25;;;6.90;99.90;;;;;;5126621;27;20192;-76
2020/12/26 11:13:21;;;;;;;12.00;5.57;;;6.80;99.90;;;;;;5131283;27;20211;-76
2020/12/26 11:15:48;;;;;;;4.72;3.70;;;6.80;99.90;;;;;;5129894;27;20674;-76
2020/12/26 11:18:15;;;;;;;7.22;5.35;;;6.70;99.90;;;;;;5130497;27;20200;-76
2020/12/26 11:20:41;;;;;;;6.03;4.70;;;6.70;99.90;;;;;;5121415;27;20200;-76
2020/12/26 11:23:07;;;;;;;5.20;4.13;;;6.70;99.90;;;;;;5125717;27;20192;-76
2020/12/26 11:25:33;;;;;;;5.38;4.40;;;6.70;99.90;;;;;;5132281;27;20233;-76
2020/12/26 11:28:02;;;;;;;6.53;4.70;;;6.60;99.90;;;;;;5130731;27;20195;-76
2020/12/26 11:30:28;;;;;;;5.60;4.20;;;6.60;99.90;;;;;;5119872;27;20552;-76
2020/12/26 11:32:54;;;;;;;4.97;4.47;;;6.70;99.90;;;;;;5130139;27;20268;-76
2020/12/26 11:35:21;;;;;;;10.48;5.45;;;6.70;99.90;;;;;;5121965;28;20253;-76
2020/12/26 11:37:48;;;;;;;4.95;4.45;;;6.70;99.90;;;;;;5115339;28;20192;-77
2020/12/26 11:40:14;;;;;;;6.13;4.30;;;6.70;99.90;;;;;;5120515;27;20227;-77
2020/12/26 11:42:40;;;;;;;4.07;3.67;;;6.70;99.90;;;;;;5125467;27;20632;-76
2020/12/26 11:45:07;;;;;;;3.78;3.45;;;6.70;99.90;;;;;;5129557;28;20298;-77
2020/12/26 11:47:34;;;;;;;5.03;3.72;;;6.80;99.90;;;;;;5132595;27;20577;-77
2020/12/26 11:50:01;;;;;;;5.25;4.03;;;6.80;99.90;;;;;;5112927;27;20702;-76
2020/12/26 11:52:28;;;;;;;4.50;4.10;;;6.90;99.90;;;;;;5123330;28;20197;-77
2020/12/26 11:54:54;;;;;;;4.70;4.03;;;6.80;99.90;;;;;;5111713;28;20204;-76
2020/12/26 11:57:20;;;;;;;6.72;4.00;;;6.80;99.90;;;;;;5126232;27;20295;-76
2020/12/26 11:59:47;;;;;;;4.13;3.65;;;6.80;99.90;;;;;;5132348;27;20200;-76
2020/12/26 12:02:13;;;;;;;4.95;3.97;;;6.80;99.90;;;;;;5128651;27;20185;-74
2020/12/26 12:04:39;;;;;;;4.43;3.83;;;6.90;99.90;;;;;;5111114;28;20220;-81
2020/12/26 12:07:06;;;;;;;3.97;3.63;;;6.80;99.90;;;;;;5122421;28;20185;-77
2020/12/26 12:09:33;;;;;;;3.53;3.22;;;6.80;99.90;;;;;;5126936;27;20192;-78
2020/12/26 12:11:59;;;;;;;6.57;3.67;;;6.80;99.90;;;;;;5112328;28;20228;-76
2020/12/26 12:14:25;;;;;;;4.88;3.42;;;6.90;99.90;;;;;;5118981;28;20189;-77
2020/12/26 12:16:51;;;;;;;5.05;3.53;;;6.90;99.90;;;;;;5113876;28;20205;-77
2020/12/26 12:19:18;;;;;;;3.97;3.20;;;6.90;99.90;;;;;;5115265;27;20209;-77
2020/12/26 12:21:45;;;;;;;8.10;3.80;;;6.90;99.90;;;;;;5112160;28;20566;-77
2020/12/26 12:24:11;;;;;;;3.83;3.00;;;6.90;99.90;;;;;;5120759;28;20199;-77
2020/12/26 12:26:38;;;;;;;4.28;3.63;;;6.90;99.90;;;;;;5111944;28;20204;-77
2020/12/26 12:29:05;;;;;;;3.75;3.35;;;6.90;99.90;;;;;;5112787;28;20237;-76
2020/12/26 12:31:37;;;;;;;5.30;4.20;;;6.90;99.90;;;;;;5111448;28;20220;-76
2020/12/26 12:34:04;;;;;;;6.53;3.00;;;6.90;99.90;;;;;;5122735;27;20200;-77
2020/12/26 12:36:30;;;;;;;4.18;3.33;;;6.90;99.90;;;;;;5115674;28;20211;-76
2020/12/26 12:38:56;;;;;;;5.28;3.17;;;6.90;99.90;;;;;;5115372;28;20197;-76
2020/12/26 12:41:23;;;;;;;4.65;3.67;;;6.90;99.90;;;;;;5114537;27;20224;-76
2020/12/26 12:43:50;;;;;;;6.90;2.97;;;6.80;99.90;;;;;;5126089;27;20248;-76
2020/12/26 12:46:16;;;;;;;6.22;3.20;;;6.90;99.90;;;;;;5117447;27;20269;-77
2020/12/26 12:48:42;;;;;;;3.40;2.45;;;6.80;99.90;;;;;;5115193;27;20242;-76
2020/12/26 12:51:09;;;;;;;3.63;2.63;;;6.90;99.90;;;;;;5133946;27;20200;-79
2020/12/26 12:53:35;;;;;;;4.30;3.05;;;6.90;99.90;;;;;;5120911;27;20200;-77
2020/12/26 12:56:02;;;;;;;4.32;3.15;;;6.90;99.90;;;;;;5130112;27;20185;-79
2020/12/26 12:58:28;;;;;;;4.82;2.38;;;6.90;99.90;;;;;;5133957;27;20231;-78
2020/12/26 13:00:55;;;;;;;3.10;2.80;;;6.90;99.90;;;;;;5123122;27;20806;-77